CYLW/YLW METAR and TAF weather

Enter ICAO airport designator
Station Type Date Time Source
CYLW METAR 2018/12/10 18:00 UTC NOAA

CYLW 101800Z AUTO 17006KT 9SM BKN026 02/00 A3017 RMK SLP235


Station Type Date Time Source
CYLW Decoded METAR 2018/12/10 18:00 UTC NOAA

Kelowna Airport, Canada (CYLW) 49-58N 119-23W 430M
Dec 10, 2018 - 01:00 PM EST / 2018.12.10 1800 UTC
Wind: from the S (170 degrees) at 7 MPH (6 KT):0
Visibility: 9 mile(s):0
Sky conditions: mostly cloudy
Temperature: 35 F (2 C)
Windchill: 28 F (-2 C):1
Dew Point: 32 F (0 C)
Relative Humidity: 86%
Pressure (altimeter): 30.17 in. Hg (1021 hPa)
ob: CYLW 101800Z AUTO 17006KT 9SM BKN026 02/00 A3017 RMK SLP235
cycle: 18

Station Type Date Time Source
CYLW TAF 2018/12/10 19:42 UTC NOAA

TAF CYLW 101838Z 1019/1107 17005KT P6SM SCT020 BKN030
TEMPO 1019/1022 BKN020
FM102200 17005KT P6SM BKN030
TEMPO 1022/1024 SCT030
FM110000 17005KT P6SM SCT030
RMK FCST BASED ON AUTO OBS. NXT FCST BY 110100Z


Example: see airport list